sensor_id;sensor_type;location;lat;lon;timestamp;P1;durP1;ratioP1;P2;durP2;ratioP2
12163;SDS011;6145;50.192;10.064;2024-02-21T00:00:39;12.00;;;4.60;;
12163;SDS011;6145;50.192;10.064;2024-02-21T00:03:06;10.03;;;4.20;;
12163;SDS011;6145;50.192;10.064;2024-02-21T00:05:33;9.53;;;4.37;;
12163;SDS011;6145;50.192;10.064;2024-02-21T00:08:02;15.20;;;4.90;;
12163;SDS011;6145;50.192;10.064;2024-02-21T00:10:29;9.73;;;5.17;;
12163;SDS011;6145;50.192;10.064;2024-02-21T00:12:56;10.30;;;4.30;;
12163;SDS011;6145;50.192;10.064;2024-02-21T00:15:24;7.13;;;4.10;;
12163;SDS011;6145;50.192;10.064;2024-02-21T00:17:52;9.27;;;3.47;;
12163;SDS011;6145;50.192;10.064;2024-02-21T00:20:19;17.90;;;4.70;;
12163;SDS011;6145;50.192;10.064;2024-02-21T00:22:46;10.17;;;4.23;;
12163;SDS011;6145;50.192;10.064;2024-02-21T00:25:13;6.07;;;3.33;;
12163;SDS011;6145;50.192;10.064;2024-02-21T00:27:39;8.20;;;4.03;;
12163;SDS011;6145;50.192;10.064;2024-02-21T00:30:07;9.53;;;4.43;;
12163;SDS011;6145;50.192;10.064;2024-02-21T00:32:34;11.37;;;4.60;;
12163;SDS011;6145;50.192;10.064;2024-02-21T00:35:02;10.00;;;3.77;;
12163;SDS011;6145;50.192;10.064;2024-02-21T00:37:29;6.00;;;3.37;;
12163;SDS011;6145;50.192;10.064;2024-02-21T00:39:57;12.03;;;4.47;;
12163;SDS011;6145;50.192;10.064;2024-02-21T00:42:23;9.30;;;4.03;;
12163;SDS011;6145;50.192;10.064;2024-02-21T00:44:50;3.23;;;2.50;;
12163;SDS011;6145;50.192;10.064;2024-02-21T00:47:17;8.10;;;3.47;;
12163;SDS011;6145;50.192;10.064;2024-02-21T00:49:44;14.47;;;4.13;;
12163;SDS011;6145;50.192;10.064;2024-02-21T00:52:12;8.93;;;3.50;;
12163;SDS011;6145;50.192;10.064;2024-02-21T00:54:39;13.10;;;3.63;;
12163;SDS011;6145;50.192;10.064;2024-02-21T00:57:06;11.90;;;4.63;;
12163;SDS011;6145;50.192;10.064;2024-02-21T00:59:33;11.20;;;4.27;;
12163;SDS011;6145;50.192;10.064;2024-02-21T01:01:59;13.70;;;5.50;;
12163;SDS011;6145;50.192;10.064;2024-02-21T01:04:26;6.87;;;3.73;;
12163;SDS011;6145;50.192;10.064;2024-02-21T01:06:53;7.40;;;4.23;;
12163;SDS011;6145;50.192;10.064;2024-02-21T01:09:21;12.07;;;4.37;;
12163;SDS011;6145;50.192;10.064;2024-02-21T01:11:48;6.83;;;3.87;;
12163;SDS011;6145;50.192;10.064;2024-02-21T01:14:14;12.50;;;4.70;;
12163;SDS011;6145;50.192;10.064;2024-02-21T01:16:41;10.70;;;4.10;;
12163;SDS011;6145;50.192;10.064;2024-02-21T01:19:08;10.47;;;4.50;;
12163;SDS011;6145;50.192;10.064;2024-02-21T01:21:34;10.80;;;4.43;;
12163;SDS011;6145;50.192;10.064;2024-02-21T01:24:01;10.17;;;5.00;;
12163;SDS011;6145;50.192;10.064;2024-02-21T01:26:29;13.17;;;5.27;;
12163;SDS011;6145;50.192;10.064;2024-02-21T01:28:56;5.27;;;3.23;;
12163;SDS011;6145;50.192;10.064;2024-02-21T01:31:23;10.77;;;3.87;;
12163;SDS011;6145;50.192;10.064;2024-02-21T01:33:50;12.10;;;4.40;;
12163;SDS011;6145;50.192;10.064;2024-02-21T01:36:16;10.13;;;4.17;;
12163;SDS011;6145;50.192;10.064;2024-02-21T01:38:43;13.00;;;4.30;;
12163;SDS011;6145;50.192;10.064;2024-02-21T01:41:10;7.00;;;3.93;;
12163;SDS011;6145;50.192;10.064;2024-02-21T01:43:38;3.50;;;2.43;;
12163;SDS011;6145;50.192;10.064;2024-02-21T01:46:05;12.13;;;4.03;;
12163;SDS011;6145;50.192;10.064;2024-02-21T01:48:32;15.47;;;4.47;;
12163;SDS011;6145;50.192;10.064;2024-02-21T01:51:00;8.00;;;4.47;;
12163;SDS011;6145;50.192;10.064;2024-02-21T01:53:29;7.57;;;3.20;;
12163;SDS011;6145;50.192;10.064;2024-02-21T01:55:59;7.77;;;3.97;;
12163;SDS011;6145;50.192;10.064;2024-02-21T01:58:26;6.03;;;3.60;;
12163;SDS011;6145;50.192;10.064;2024-02-21T02:00:56;7.17;;;3.77;;
12163;SDS011;6145;50.192;10.064;2024-02-21T02:03:23;3.43;;;2.13;;
12163;SDS011;6145;50.192;10.064;2024-02-21T02:05:50;8.57;;;4.30;;
12163;SDS011;6145;50.192;10.064;2024-02-21T02:08:18;11.30;;;4.13;;
12163;SDS011;6145;50.192;10.064;2024-02-21T02:10:47;10.60;;;4.67;;
12163;SDS011;6145;50.192;10.064;2024-02-21T02:13:14;16.40;;;5.10;;
12163;SDS011;6145;50.192;10.064;2024-02-21T02:15:41;7.90;;;4.87;;
12163;SDS011;6145;50.192;10.064;2024-02-21T02:18:10;10.77;;;4.83;;
12163;SDS011;6145;50.192;10.064;2024-02-21T02:20:37;9.47;;;4.97;;
12163;SDS011;6145;50.192;10.064;2024-02-21T02:23:06;5.40;;;2.93;;
12163;SDS011;6145;50.192;10.064;2024-02-21T02:25:37;9.40;;;4.50;;
12163;SDS011;6145;50.192;10.064;2024-02-21T02:28:05;11.10;;;4.60;;
12163;SDS011;6145;50.192;10.064;2024-02-21T02:30:32;9.67;;;4.80;;
12163;SDS011;6145;50.192;10.064;2024-02-21T02:33:01;11.00;;;4.53;;
12163;SDS011;6145;50.192;10.064;2024-02-21T02:35:27;12.80;;;4.60;;
12163;SDS011;6145;50.192;10.064;2024-02-21T02:37:54;8.33;;;4.83;;
12163;SDS011;6145;50.192;10.064;2024-02-21T02:40:21;14.87;;;4.97;;
12163;SDS011;6145;50.192;10.064;2024-02-21T02:42:49;9.37;;;4.73;;
12163;SDS011;6145;50.192;10.064;2024-02-21T02:45:16;8.90;;;5.10;;
12163;SDS011;6145;50.192;10.064;2024-02-21T02:47:44;15.87;;;5.80;;
12163;SDS011;6145;50.192;10.064;2024-02-21T02:50:11;11.50;;;5.50;;
12163;SDS011;6145;50.192;10.064;2024-02-21T02:52:37;10.53;;;5.10;;
12163;SDS011;6145;50.192;10.064;2024-02-21T02:55:05;9.23;;;4.57;;
12163;SDS011;6145;50.192;10.064;2024-02-21T02:57:32;12.20;;;5.07;;
12163;SDS011;6145;50.192;10.064;2024-02-21T03:00:00;7.67;;;5.07;;
12163;SDS011;6145;50.192;10.064;2024-02-21T03:02:27;10.93;;;4.77;;
12163;SDS011;6145;50.192;10.064;2024-02-21T03:04:54;11.87;;;5.33;;
12163;SDS011;6145;50.192;10.064;2024-02-21T03:07:20;14.67;;;5.47;;
12163;SDS011;6145;50.192;10.064;2024-02-21T03:09:47;9.60;;;5.00;;
12163;SDS011;6145;50.192;10.064;2024-02-21T03:12:14;14.53;;;5.70;;
12163;SDS011;6145;50.192;10.064;2024-02-21T03:14:49;11.10;;;6.07;;
12163;SDS011;6145;50.192;10.064;2024-02-21T03:17:17;12.67;;;5.93;;
12163;SDS011;6145;50.192;10.064;2024-02-21T03:19:43;10.50;;;5.43;;
12163;SDS011;6145;50.192;10.064;2024-02-21T03:22:10;13.13;;;5.70;;
12163;SDS011;6145;50.192;10.064;2024-02-21T03:24:37;11.87;;;6.33;;
12163;SDS011;6145;50.192;10.064;2024-02-21T03:27:04;8.73;;;5.13;;
12163;SDS011;6145;50.192;10.064;2024-02-21T03:29:30;11.23;;;5.93;;
12163;SDS011;6145;50.192;10.064;2024-02-21T03:31:57;8.97;;;5.80;;
12163;SDS011;6145;50.192;10.064;2024-02-21T03:34:25;15.50;;;6.13;;
12163;SDS011;6145;50.192;10.064;2024-02-21T03:36:52;15.13;;;6.13;;
12163;SDS011;6145;50.192;10.064;2024-02-21T03:39:19;11.07;;;6.17;;
12163;SDS011;6145;50.192;10.064;2024-02-21T03:41:46;13.93;;;5.67;;
12163;SDS011;6145;50.192;10.064;2024-02-21T03:44:13;17.97;;;5.97;;
12163;SDS011;6145;50.192;10.064;2024-02-21T03:46:39;14.93;;;6.23;;
12163;SDS011;6145;50.192;10.064;2024-02-21T03:49:06;12.50;;;5.97;;
12163;SDS011;6145;50.192;10.064;2024-02-21T03:51:35;13.83;;;6.33;;
12163;SDS011;6145;50.192;10.064;2024-02-21T03:54:01;9.87;;;5.47;;
12163;SDS011;6145;50.192;10.064;2024-02-21T03:56:28;8.80;;;4.93;;
12163;SDS011;6145;50.192;10.064;2024-02-21T03:58:55;13.33;;;5.50;;
12163;SDS011;6145;50.192;10.064;2024-02-21T04:01:23;14.03;;;5.83;;
12163;SDS011;6145;50.192;10.064;2024-02-21T04:03:50;13.33;;;6.00;;
12163;SDS011;6145;50.192;10.064;2024-02-21T04:06:16;10.40;;;5.63;;
12163;SDS011;6145;50.192;10.064;2024-02-21T04:08:45;11.23;;;5.53;;
12163;SDS011;6145;50.192;10.064;2024-02-21T04:11:12;14.53;;;6.27;;
12163;SDS011;6145;50.192;10.064;2024-02-21T04:13:38;13.13;;;6.07;;
12163;SDS011;6145;50.192;10.064;2024-02-21T04:16:05;13.10;;;5.47;;
12163;SDS011;6145;50.192;10.064;2024-02-21T04:18:32;11.03;;;5.07;;
12163;SDS011;6145;50.192;10.064;2024-02-21T04:20:59;10.23;;;5.47;;
12163;SDS011;6145;50.192;10.064;2024-02-21T04:23:26;9.53;;;5.60;;
12163;SDS011;6145;50.192;10.064;2024-02-21T04:25:54;12.13;;;6.00;;
12163;SDS011;6145;50.192;10.064;2024-02-21T04:28:20;13.10;;;5.57;;
12163;SDS011;6145;50.192;10.064;2024-02-21T04:30:47;11.17;;;5.50;;
12163;SDS011;6145;50.192;10.064;2024-02-21T04:33:14;13.97;;;5.93;;
12163;SDS011;6145;50.192;10.064;2024-02-21T04:35:41;14.23;;;6.33;;
12163;SDS011;6145;50.192;10.064;2024-02-21T04:38:07;14.47;;;6.43;;
12163;SDS011;6145;50.192;10.064;2024-02-21T04:40:34;10.87;;;5.20;;
12163;SDS011;6145;50.192;10.064;2024-02-21T04:43:02;14.63;;;6.43;;
12163;SDS011;6145;50.192;10.064;2024-02-21T04:45:29;10.03;;;5.80;;
12163;SDS011;6145;50.192;10.064;2024-02-21T04:47:56;12.63;;;5.77;;
12163;SDS011;6145;50.192;10.064;2024-02-21T04:50:36;13.37;;;5.83;;
12163;SDS011;6145;50.192;10.064;2024-02-21T04:53:03;10.27;;;5.33;;
12163;SDS011;6145;50.192;10.064;2024-02-21T04:55:30;10.97;;;5.50;;
12163;SDS011;6145;50.192;10.064;2024-02-21T04:57:56;15.03;;;6.17;;
12163;SDS011;6145;50.192;10.064;2024-02-21T05:00:24;14.17;;;5.90;;
12163;SDS011;6145;50.192;10.064;2024-02-21T05:02:51;12.93;;;6.13;;
12163;SDS011;6145;50.192;10.064;2024-02-21T05:05:18;11.43;;;5.93;;
12163;SDS011;6145;50.192;10.064;2024-02-21T05:07:45;17.17;;;6.17;;
12163;SDS011;6145;50.192;10.064;2024-02-21T05:10:12;12.57;;;6.13;;
12163;SDS011;6145;50.192;10.064;2024-02-21T05:12:38;12.87;;;6.20;;
12163;SDS011;6145;50.192;10.064;2024-02-21T05:15:06;15.63;;;6.37;;
12163;SDS011;6145;50.192;10.064;2024-02-21T05:17:34;14.70;;;5.70;;
12163;SDS011;6145;50.192;10.064;2024-02-21T05:20:01;8.90;;;4.90;;
12163;SDS011;6145;50.192;10.064;2024-02-21T05:22:28;16.83;;;6.00;;
12163;SDS011;6145;50.192;10.064;2024-02-21T05:24:55;12.00;;;6.17;;
12163;SDS011;6145;50.192;10.064;2024-02-21T05:27:22;8.03;;;4.90;;
12163;SDS011;6145;50.192;10.064;2024-02-21T05:29:49;10.77;;;5.87;;
12163;SDS011;6145;50.192;10.064;2024-02-21T05:32:15;17.63;;;6.57;;
12163;SDS011;6145;50.192;10.064;2024-02-21T05:34:44;11.33;;;5.70;;
12163;SDS011;6145;50.192;10.064;2024-02-21T05:37:10;16.33;;;6.57;;
12163;SDS011;6145;50.192;10.064;2024-02-21T05:39:37;12.93;;;5.73;;
12163;SDS011;6145;50.192;10.064;2024-02-21T05:42:04;17.07;;;6.37;;
12163;SDS011;6145;50.192;10.064;2024-02-21T05:44:31;11.23;;;5.73;;
12163;SDS011;6145;50.192;10.064;2024-02-21T05:46:58;11.47;;;5.57;;
12163;SDS011;6145;50.192;10.064;2024-02-21T05:49:25;7.93;;;5.70;;
12163;SDS011;6145;50.192;10.064;2024-02-21T05:51:53;13.23;;;5.90;;
12163;SDS011;6145;50.192;10.064;2024-02-21T05:54:19;10.57;;;5.87;;
12163;SDS011;6145;50.192;10.064;2024-02-21T05:56:46;11.57;;;6.10;;
12163;SDS011;6145;50.192;10.064;2024-02-21T05:59:13;16.93;;;6.27;;
12163;SDS011;6145;50.192;10.064;2024-02-21T06:01:40;13.97;;;6.50;;
12163;SDS011;6145;50.192;10.064;2024-02-21T06:04:07;9.93;;;6.10;;
12163;SDS011;6145;50.192;10.064;2024-02-21T06:06:33;12.13;;;6.10;;
12163;SDS011;6145;50.192;10.064;2024-02-21T06:09:02;13.97;;;6.50;;
12163;SDS011;6145;50.192;10.064;2024-02-21T06:11:28;13.00;;;5.20;;
12163;SDS011;6145;50.192;10.064;2024-02-21T06:13:55;13.07;;;5.93;;
12163;SDS011;6145;50.192;10.064;2024-02-21T06:16:22;12.53;;;5.40;;
12163;SDS011;6145;50.192;10.064;2024-02-21T06:18:49;10.70;;;5.57;;
12163;SDS011;6145;50.192;10.064;2024-02-21T06:21:15;14.63;;;6.87;;
12163;SDS011;6145;50.192;10.064;2024-02-21T06:23:42;14.37;;;6.37;;
12163;SDS011;6145;50.192;10.064;2024-02-21T06:26:10;12.07;;;5.40;;
12163;SDS011;6145;50.192;10.064;2024-02-21T06:28:37;12.67;;;5.33;;
12163;SDS011;6145;50.192;10.064;2024-02-21T06:31:04;7.93;;;5.00;;
12163;SDS011;6145;50.192;10.064;2024-02-21T06:33:31;9.13;;;5.40;;
12163;SDS011;6145;50.192;10.064;2024-02-21T06:35:57;11.87;;;4.63;;
12163;SDS011;6145;50.192;10.064;2024-02-21T06:38:24;16.10;;;5.30;;
12163;SDS011;6145;50.192;10.064;2024-02-21T06:40:51;8.20;;;5.73;;
12163;SDS011;6145;50.192;10.064;2024-02-21T06:43:20;12.80;;;6.13;;
12163;SDS011;6145;50.192;10.064;2024-02-21T06:45:47;12.43;;;5.70;;
12163;SDS011;6145;50.192;10.064;2024-02-21T06:48:16;13.00;;;6.80;;
12163;SDS011;6145;50.192;10.064;2024-02-21T06:50:43;9.67;;;5.60;;
12163;SDS011;6145;50.192;10.064;2024-02-21T06:53:10;13.07;;;6.03;;
12163;SDS011;6145;50.192;10.064;2024-02-21T06:55:37;8.97;;;5.80;;
12163;SDS011;6145;50.192;10.064;2024-02-21T06:58:04;11.60;;;6.10;;
12163;SDS011;6145;50.192;10.064;2024-02-21T07:00:34;9.67;;;6.83;;
12163;SDS011;6145;50.192;10.064;2024-02-21T07:03:01;13.50;;;5.93;;
12163;SDS011;6145;50.192;10.064;2024-02-21T07:05:28;10.33;;;5.77;;
12163;SDS011;6145;50.192;10.064;2024-02-21T07:07:55;11.33;;;6.33;;
12163;SDS011;6145;50.192;10.064;2024-02-21T07:10:22;11.13;;;5.70;;
12163;SDS011;6145;50.192;10.064;2024-02-21T07:12:48;12.37;;;6.07;;
12163;SDS011;6145;50.192;10.064;2024-02-21T07:15:17;8.73;;;5.53;;
12163;SDS011;6145;50.192;10.064;2024-02-21T07:17:45;11.00;;;5.77;;
12163;SDS011;6145;50.192;10.064;2024-02-21T07:20:12;10.93;;;6.93;;
12163;SDS011;6145;50.192;10.064;2024-02-21T07:22:38;12.70;;;5.40;;
12163;SDS011;6145;50.192;10.064;2024-02-21T07:25:05;13.43;;;5.03;;
12163;SDS011;6145;50.192;10.064;2024-02-21T07:27:33;8.00;;;4.93;;
12163;SDS011;6145;50.192;10.064;2024-02-21T07:29:59;9.93;;;5.40;;
12163;SDS011;6145;50.192;10.064;2024-02-21T07:32:26;11.27;;;6.13;;
12163;SDS011;6145;50.192;10.064;2024-02-21T07:34:55;10.67;;;6.13;;
12163;SDS011;6145;50.192;10.064;2024-02-21T07:37:21;11.37;;;5.90;;
12163;SDS011;6145;50.192;10.064;2024-02-21T07:39:48;8.57;;;5.20;;
12163;SDS011;6145;50.192;10.064;2024-02-21T07:42:15;12.33;;;5.53;;
12163;SDS011;6145;50.192;10.064;2024-02-21T07:44:41;11.77;;;5.30;;
12163;SDS011;6145;50.192;10.064;2024-02-21T07:47:08;7.40;;;5.10;;
12163;SDS011;6145;50.192;10.064;2024-02-21T07:49:40;9.57;;;5.57;;
12163;SDS011;6145;50.192;10.064;2024-02-21T07:52:09;11.40;;;5.37;;
12163;SDS011;6145;50.192;10.064;2024-02-21T07:54:36;9.90;;;5.27;;
12163;SDS011;6145;50.192;10.064;2024-02-21T07:57:02;11.43;;;5.93;;
12163;SDS011;6145;50.192;10.064;2024-02-21T07:59:29;10.40;;;5.57;;
12163;SDS011;6145;50.192;10.064;2024-02-21T08:01:56;12.80;;;6.20;;
12163;SDS011;6145;50.192;10.064;2024-02-21T08:04:23;10.30;;;5.17;;
12163;SDS011;6145;50.192;10.064;2024-02-21T08:06:51;12.03;;;5.83;;
12163;SDS011;6145;50.192;10.064;2024-02-21T08:09:21;9.97;;;5.27;;
12163;SDS011;6145;50.192;10.064;2024-02-21T08:11:48;10.97;;;5.83;;
12163;SDS011;6145;50.192;10.064;2024-02-21T08:14:15;11.67;;;5.73;;
12163;SDS011;6145;50.192;10.064;2024-02-21T08:16:43;8.13;;;4.63;;
12163;SDS011;6145;50.192;10.064;2024-02-21T08:19:10;12.67;;;5.77;;
12163;SDS011;6145;50.192;10.064;2024-02-21T08:21:37;9.13;;;5.53;;
12163;SDS011;6145;50.192;10.064;2024-02-21T08:24:04;8.33;;;5.37;;
12163;SDS011;6145;50.192;10.064;2024-02-21T08:26:32;7.53;;;5.13;;
12163;SDS011;6145;50.192;10.064;2024-02-21T08:28:59;9.23;;;4.93;;
12163;SDS011;6145;50.192;10.064;2024-02-21T08:31:26;9.13;;;5.00;;
12163;SDS011;6145;50.192;10.064;2024-02-21T08:33:56;7.93;;;5.10;;
12163;SDS011;6145;50.192;10.064;2024-02-21T08:36:27;10.40;;;4.63;;
12163;SDS011;6145;50.192;10.064;2024-02-21T08:38:54;5.53;;;4.27;;
12163;SDS011;6145;50.192;10.064;2024-02-21T08:41:21;9.67;;;4.47;;
12163;SDS011;6145;50.192;10.064;2024-02-21T08:43:50;7.00;;;4.37;;
12163;SDS011;6145;50.192;10.064;2024-02-21T08:46:17;8.37;;;3.83;;
12163;SDS011;6145;50.192;10.064;2024-02-21T08:48:44;8.87;;;5.10;;
12163;SDS011;6145;50.192;10.064;2024-02-21T08:51:11;7.13;;;3.97;;
12163;SDS011;6145;50.192;10.064;2024-02-21T08:53:38;6.37;;;4.10;;
12163;SDS011;6145;50.192;10.064;2024-02-21T08:56:05;6.87;;;4.27;;
12163;SDS011;6145;50.192;10.064;2024-02-21T08:58:34;7.50;;;3.97;;
12163;SDS011;6145;50.192;10.064;2024-02-21T09:01:03;10.57;;;4.57;;
12163;SDS011;6145;50.192;10.064;2024-02-21T09:03:31;8.50;;;4.40;;
12163;SDS011;6145;50.192;10.064;2024-02-21T09:05:58;6.57;;;4.53;;
12163;SDS011;6145;50.192;10.064;2024-02-21T09:08:25;6.97;;;3.97;;
12163;SDS011;6145;50.192;10.064;2024-02-21T09:10:52;6.83;;;4.20;;
12163;SDS011;6145;50.192;10.064;2024-02-21T09:13:19;9.13;;;4.23;;
12163;SDS011;6145;50.192;10.064;2024-02-21T09:15:47;7.17;;;4.20;;
12163;SDS011;6145;50.192;10.064;2024-02-21T09:18:15;7.33;;;3.93;;
12163;SDS011;6145;50.192;10.064;2024-02-21T09:20:42;7.67;;;3.90;;
12163;SDS011;6145;50.192;10.064;2024-02-21T09:23:09;5.90;;;3.70;;
12163;SDS011;6145;50.192;10.064;2024-02-21T09:25:36;6.03;;;3.72;;
12163;SDS011;6145;50.192;10.064;2024-02-21T09:28:03;4.97;;;3.40;;
12163;SDS011;6145;50.192;10.064;2024-02-21T09:30:31;6.28;;;3.53;;
12163;SDS011;6145;50.192;10.064;2024-02-21T09:32:58;6.07;;;3.50;;
12163;SDS011;6145;50.192;10.064;2024-02-21T09:35:27;6.13;;;4.20;;
12163;SDS011;6145;50.192;10.064;2024-02-21T09:37:54;7.20;;;3.30;;
12163;SDS011;6145;50.192;10.064;2024-02-21T09:40:21;6.45;;;3.60;;
12163;SDS011;6145;50.192;10.064;2024-02-21T09:42:49;7.07;;;4.00;;
12163;SDS011;6145;50.192;10.064;2024-02-21T09:45:28;7.70;;;3.40;;
12163;SDS011;6145;50.192;10.064;2024-02-21T09:48:02;6.17;;;3.43;;
12163;SDS011;6145;50.192;10.064;2024-02-21T09:50:47;6.50;;;3.53;;
12163;SDS011;6145;50.192;10.064;2024-02-21T09:53:16;7.77;;;3.60;;
12163;SDS011;6145;50.192;10.064;2024-02-21T09:55:44;9.10;;;3.30;;
12163;SDS011;6145;50.192;10.064;2024-02-21T09:58:12;7.33;;;4.17;;
12163;SDS011;6145;50.192;10.064;2024-02-21T10:00:39;8.83;;;3.87;;
12163;SDS011;6145;50.192;10.064;2024-02-21T10:03:06;6.70;;;3.60;;
12163;SDS011;6145;50.192;10.064;2024-02-21T10:05:34;8.43;;;3.70;;
12163;SDS011;6145;50.192;10.064;2024-02-21T10:08:03;8.40;;;3.90;;
12163;SDS011;6145;50.192;10.064;2024-02-21T10:10:39;8.60;;;3.63;;
12163;SDS011;6145;50.192;10.064;2024-02-21T10:13:07;7.97;;;3.77;;
12163;SDS011;6145;50.192;10.064;2024-02-21T10:15:35;5.30;;;3.33;;
12163;SDS011;6145;50.192;10.064;2024-02-21T10:18:02;6.37;;;3.53;;
12163;SDS011;6145;50.192;10.064;2024-02-21T10:20:31;6.10;;;4.33;;
12163;SDS011;6145;50.192;10.064;2024-02-21T10:23:01;8.23;;;3.83;;
12163;SDS011;6145;50.192;10.064;2024-02-21T10:25:33;5.17;;;3.30;;
12163;SDS011;6145;50.192;10.064;2024-02-21T10:28:01;6.97;;;3.63;;
12163;SDS011;6145;50.192;10.064;2024-02-21T10:30:29;6.10;;;3.50;;
12163;SDS011;6145;50.192;10.064;2024-02-21T10:32:56;7.53;;;3.10;;
12163;SDS011;6145;50.192;10.064;2024-02-21T10:35:27;6.87;;;3.20;;
12163;SDS011;6145;50.192;10.064;2024-02-21T10:37:55;5.73;;;3.10;;
12163;SDS011;6145;50.192;10.064;2024-02-21T10:40:28;6.43;;;3.00;;
12163;SDS011;6145;50.192;10.064;2024-02-21T10:42:56;8.02;;;3.45;;
12163;SDS011;6145;50.192;10.064;2024-02-21T10:45:27;7.28;;;3.45;;
12163;SDS011;6145;50.192;10.064;2024-02-21T10:47:59;6.65;;;3.15;;
12163;SDS011;6145;50.192;10.064;2024-02-21T10:50:41;9.77;;;3.80;;
12163;SDS011;6145;50.192;10.064;2024-02-21T10:53:20;6.45;;;3.17;;
12163;SDS011;6145;50.192;10.064;2024-02-21T10:56:05;6.43;;;3.30;;
12163;SDS011;6145;50.192;10.064;2024-02-21T10:58:38;6.35;;;3.00;;
12163;SDS011;6145;50.192;10.064;2024-02-21T11:01:05;6.03;;;3.60;;
12163;SDS011;6145;50.192;10.064;2024-02-21T11:03:33;6.88;;;3.42;;
12163;SDS011;6145;50.192;10.064;2024-02-21T11:06:01;7.57;;;4.10;;
12163;SDS011;6145;50.192;10.064;2024-02-21T11:08:30;7.45;;;3.40;;
12163;SDS011;6145;50.192;10.064;2024-02-21T11:10:57;7.10;;;3.25;;
12163;SDS011;6145;50.192;10.064;2024-02-21T11:13:34;6.30;;;3.30;;
12163;SDS011;6145;50.192;10.064;2024-02-21T11:16:08;5.77;;;2.93;;
12163;SDS011;6145;50.192;10.064;2024-02-21T11:18:35;7.77;;;4.00;;
12163;SDS011;6145;50.192;10.064;2024-02-21T11:21:02;6.27;;;3.13;;
12163;SDS011;6145;50.192;10.064;2024-02-21T11:23:30;6.90;;;3.10;;
12163;SDS011;6145;50.192;10.064;2024-02-21T11:26:04;7.60;;;3.10;;
12163;SDS011;6145;50.192;10.064;2024-02-21T11:28:33;6.60;;;2.60;;
12163;SDS011;6145;50.192;10.064;2024-02-21T11:31:06;5.70;;;2.77;;
12163;SDS011;6145;50.192;10.064;2024-02-21T11:33:33;6.23;;;2.60;;
12163;SDS011;6145;50.192;10.064;2024-02-21T11:36:00;3.07;;;2.50;;
12163;SDS011;6145;50.192;10.064;2024-02-21T11:38:29;3.27;;;2.40;;
12163;SDS011;6145;50.192;10.064;2024-02-21T11:40:56;5.03;;;2.50;;
12163;SDS011;6145;50.192;10.064;2024-02-21T11:43:23;6.00;;;2.40;;
12163;SDS011;6145;50.192;10.064;2024-02-21T11:45:51;2.27;;;1.83;;
12163;SDS011;6145;50.192;10.064;2024-02-21T11:48:25;3.13;;;2.20;;
12163;SDS011;6145;50.192;10.064;2024-02-21T11:50:52;3.37;;;1.70;;
12163;SDS011;6145;50.192;10.064;2024-02-21T11:53:20;5.27;;;2.23;;
12163;SDS011;6145;50.192;10.064;2024-02-21T11:55:48;6.33;;;2.50;;
12163;SDS011;6145;50.192;10.064;2024-02-21T11:58:15;3.63;;;2.13;;
12163;SDS011;6145;50.192;10.064;2024-02-21T12:00:42;3.93;;;2.27;;
12163;SDS011;6145;50.192;10.064;2024-02-21T12:03:10;5.97;;;2.30;;
12163;SDS011;6145;50.192;10.064;2024-02-21T12:05:37;4.60;;;2.40;;
12163;SDS011;6145;50.192;10.064;2024-02-21T12:08:04;6.83;;;2.60;;
12163;SDS011;6145;50.192;10.064;2024-02-21T12:10:32;3.50;;;2.30;;
12163;SDS011;6145;50.192;10.064;2024-02-21T12:13:07;3.43;;;2.00;;
12163;SDS011;6145;50.192;10.064;2024-02-21T12:15:34;5.10;;;2.50;;
12163;SDS011;6145;50.192;10.064;2024-02-21T12:18:01;3.53;;;2.17;;
12163;SDS011;6145;50.192;10.064;2024-02-21T12:20:30;11.23;;;2.67;;
12163;SDS011;6145;50.192;10.064;2024-02-21T12:22:59;4.83;;;2.50;;
12163;SDS011;6145;50.192;10.064;2024-02-21T12:25:26;5.00;;;2.80;;
12163;SDS011;6145;50.192;10.064;2024-02-21T12:27:54;2.60;;;2.23;;
12163;SDS011;6145;50.192;10.064;2024-02-21T12:30:21;5.57;;;2.67;;
12163;SDS011;6145;50.192;10.064;2024-02-21T12:32:48;3.37;;;1.90;;
12163;SDS011;6145;50.192;10.064;2024-02-21T12:35:15;5.17;;;2.60;;
12163;SDS011;6145;50.192;10.064;2024-02-21T12:37:43;4.63;;;2.17;;
12163;SDS011;6145;50.192;10.064;2024-02-21T12:40:11;5.20;;;2.53;;
12163;SDS011;6145;50.192;10.064;2024-02-21T12:42:38;3.03;;;2.00;;
12163;SDS011;6145;50.192;10.064;2024-02-21T12:45:05;4.30;;;1.83;;
12163;SDS011;6145;50.192;10.064;2024-02-21T12:47:33;5.60;;;2.60;;
12163;SDS011;6145;50.192;10.064;2024-02-21T12:49:59;4.03;;;2.17;;
12163;SDS011;6145;50.192;10.064;2024-02-21T12:52:28;2.60;;;1.90;;
12163;SDS011;6145;50.192;10.064;2024-02-21T12:54:56;4.03;;;2.20;;
12163;SDS011;6145;50.192;10.064;2024-02-21T12:57:23;4.20;;;2.10;;
12163;SDS011;6145;50.192;10.064;2024-02-21T12:59:50;5.60;;;2.27;;
12163;SDS011;6145;50.192;10.064;2024-02-21T13:02:17;4.50;;;2.10;;
12163;SDS011;6145;50.192;10.064;2024-02-21T13:04:45;4.40;;;2.20;;
12163;SDS011;6145;50.192;10.064;2024-02-21T13:07:11;5.40;;;2.50;;
12163;SDS011;6145;50.192;10.064;2024-02-21T13:09:38;3.63;;;2.00;;
12163;SDS011;6145;50.192;10.064;2024-02-21T13:12:07;3.50;;;1.80;;
12163;SDS011;6145;50.192;10.064;2024-02-21T13:14:34;5.70;;;2.17;;
12163;SDS011;6145;50.192;10.064;2024-02-21T13:17:03;4.77;;;2.30;;
12163;SDS011;6145;50.192;10.064;2024-02-21T13:19:31;6.10;;;2.70;;
12163;SDS011;6145;50.192;10.064;2024-02-21T13:21:57;3.57;;;2.13;;
12163;SDS011;6145;50.192;10.064;2024-02-21T13:24:24;5.47;;;2.17;;
12163;SDS011;6145;50.192;10.064;2024-02-21T13:26:51;3.90;;;2.03;;
12163;SDS011;6145;50.192;10.064;2024-02-21T13:29:19;5.83;;;2.40;;
12163;SDS011;6145;50.192;10.064;2024-02-21T13:31:46;5.80;;;2.30;;
12163;SDS011;6145;50.192;10.064;2024-02-21T13:34:14;5.47;;;2.40;;
12163;SDS011;6145;50.192;10.064;2024-02-21T13:36:42;4.87;;;2.63;;
12163;SDS011;6145;50.192;10.064;2024-02-21T13:39:08;4.90;;;2.40;;
12163;SDS011;6145;50.192;10.064;2024-02-21T13:41:37;5.07;;;2.47;;
12163;SDS011;6145;50.192;10.064;2024-02-21T13:44:04;3.40;;;2.00;;
12163;SDS011;6145;50.192;10.064;2024-02-21T13:46:33;4.87;;;2.20;;
12163;SDS011;6145;50.192;10.064;2024-02-21T13:49:02;4.10;;;2.10;;
12163;SDS011;6145;50.192;10.064;2024-02-21T13:51:31;5.50;;;2.37;;
12163;SDS011;6145;50.192;10.064;2024-02-21T13:53:58;6.13;;;2.30;;
12163;SDS011;6145;50.192;10.064;2024-02-21T13:56:25;4.67;;;2.30;;
12163;SDS011;6145;50.192;10.064;2024-02-21T13:58:52;5.50;;;2.40;;
12163;SDS011;6145;50.192;10.064;2024-02-21T14:01:18;4.40;;;2.33;;
12163;SDS011;6145;50.192;10.064;2024-02-21T14:03:46;4.73;;;2.60;;
12163;SDS011;6145;50.192;10.064;2024-02-21T14:06:13;4.17;;;2.30;;
12163;SDS011;6145;50.192;10.064;2024-02-21T14:08:40;4.63;;;2.47;;
12163;SDS011;6145;50.192;10.064;2024-02-21T14:11:07;2.87;;;1.97;;
12163;SDS011;6145;50.192;10.064;2024-02-21T14:13:34;4.53;;;2.30;;
12163;SDS011;6145;50.192;10.064;2024-02-21T14:16:01;4.27;;;2.43;;
12163;SDS011;6145;50.192;10.064;2024-02-21T14:18:28;6.00;;;2.40;;
12163;SDS011;6145;50.192;10.064;2024-02-21T14:20:56;5.40;;;2.33;;
12163;SDS011;6145;50.192;10.064;2024-02-21T14:23:23;5.77;;;2.20;;
12163;SDS011;6145;50.192;10.064;2024-02-21T14:25:49;7.70;;;2.57;;
12163;SDS011;6145;50.192;10.064;2024-02-21T14:28:16;6.03;;;2.27;;
12163;SDS011;6145;50.192;10.064;2024-02-21T14:30:43;4.23;;;2.30;;
12163;SDS011;6145;50.192;10.064;2024-02-21T14:33:12;6.10;;;2.50;;
12163;SDS011;6145;50.192;10.064;2024-02-21T14:35:39;4.47;;;2.30;;
12163;SDS011;6145;50.192;10.064;2024-02-21T14:38:08;5.30;;;2.10;;
12163;SDS011;6145;50.192;10.064;2024-02-21T14:40:35;5.33;;;2.57;;
12163;SDS011;6145;50.192;10.064;2024-02-21T14:43:03;7.77;;;2.83;;
12163;SDS011;6145;50.192;10.064;2024-02-21T14:45:30;5.03;;;2.30;;